sensor_id;sensor_type;location;lat;lon;timestamp;P1;durP1;ratioP1;P2;durP2;ratioP2
14778;SDS011;7481;53.750;10.570;2022-07-11T00:01:06;5.73;;;2.27;;
14778;SDS011;7481;53.750;10.570;2022-07-11T00:03:33;3.10;;;1.83;;
14778;SDS011;7481;53.750;10.570;2022-07-11T00:06:01;6.37;;;1.90;;
14778;SDS011;7481;53.750;10.570;2022-07-11T00:08:28;5.40;;;2.13;;
14778;SDS011;7481;53.750;10.570;2022-07-11T00:10:56;3.93;;;2.13;;
14778;SDS011;7481;53.750;10.570;2022-07-11T00:13:26;5.07;;;2.20;;
14778;SDS011;7481;53.750;10.570;2022-07-11T00:15:53;5.03;;;1.93;;
14778;SDS011;7481;53.750;10.570;2022-07-11T00:18:21;4.43;;;1.97;;
14778;SDS011;7481;53.750;10.570;2022-07-11T00:20:50;3.57;;;2.10;;
14778;SDS011;7481;53.750;10.570;2022-07-11T00:23:17;3.83;;;1.80;;
14778;SDS011;7481;53.750;10.570;2022-07-11T00:25:45;4.80;;;2.00;;
14778;SDS011;7481;53.750;10.570;2022-07-11T00:28:12;4.43;;;1.70;;
14778;SDS011;7481;53.750;10.570;2022-07-11T00:30:40;5.03;;;1.83;;
14778;SDS011;7481;53.750;10.570;2022-07-11T00:33:07;4.23;;;1.87;;
14778;SDS011;7481;53.750;10.570;2022-07-11T00:35:35;4.07;;;1.80;;
14778;SDS011;7481;53.750;10.570;2022-07-11T00:38:03;4.17;;;2.00;;
14778;SDS011;7481;53.750;10.570;2022-07-11T00:40:30;7.37;;;2.00;;
14778;SDS011;7481;53.750;10.570;2022-07-11T00:42:58;4.43;;;1.83;;
14778;SDS011;7481;53.750;10.570;2022-07-11T00:45:25;3.37;;;1.77;;
14778;SDS011;7481;53.750;10.570;2022-07-11T00:47:52;4.03;;;2.00;;
14778;SDS011;7481;53.750;10.570;2022-07-11T00:50:22;4.57;;;2.00;;
14778;SDS011;7481;53.750;10.570;2022-07-11T00:52:50;3.77;;;2.00;;
14778;SDS011;7481;53.750;10.570;2022-07-11T00:55:18;5.57;;;1.90;;
14778;SDS011;7481;53.750;10.570;2022-07-11T00:57:51;4.63;;;2.20;;
14778;SDS011;7481;53.750;10.570;2022-07-11T01:00:18;2.97;;;1.63;;
14778;SDS011;7481;53.750;10.570;2022-07-11T01:02:46;4.60;;;1.70;;
14778;SDS011;7481;53.750;10.570;2022-07-11T01:05:13;3.73;;;2.00;;
14778;SDS011;7481;53.750;10.570;2022-07-11T01:07:41;4.63;;;1.93;;
14778;SDS011;7481;53.750;10.570;2022-07-11T01:10:08;4.40;;;2.30;;
14778;SDS011;7481;53.750;10.570;2022-07-11T01:12:36;2.87;;;2.00;;
14778;SDS011;7481;53.750;10.570;2022-07-11T01:15:03;8.10;;;2.30;;
14778;SDS011;7481;53.750;10.570;2022-07-11T01:17:32;3.90;;;1.90;;
14778;SDS011;7481;53.750;10.570;2022-07-11T01:19:59;3.10;;;1.90;;
14778;SDS011;7481;53.750;10.570;2022-07-11T01:22:29;7.00;;;2.47;;
14778;SDS011;7481;53.750;10.570;2022-07-11T01:24:59;3.73;;;1.80;;
14778;SDS011;7481;53.750;10.570;2022-07-11T01:27:26;4.53;;;2.00;;
14778;SDS011;7481;53.750;10.570;2022-07-11T01:29:54;5.50;;;2.03;;
14778;SDS011;7481;53.750;10.570;2022-07-11T01:32:21;3.23;;;2.00;;
14778;SDS011;7481;53.750;10.570;2022-07-11T01:34:49;8.40;;;2.40;;
14778;SDS011;7481;53.750;10.570;2022-07-11T01:37:16;3.63;;;2.00;;
14778;SDS011;7481;53.750;10.570;2022-07-11T01:39:44;7.33;;;2.20;;
14778;SDS011;7481;53.750;10.570;2022-07-11T01:42:11;6.03;;;2.30;;
14778;SDS011;7481;53.750;10.570;2022-07-11T01:44:38;4.03;;;1.67;;
14778;SDS011;7481;53.750;10.570;2022-07-11T01:47:06;2.77;;;2.00;;
14778;SDS011;7481;53.750;10.570;2022-07-11T01:49:33;7.40;;;2.47;;
14778;SDS011;7481;53.750;10.570;2022-07-11T01:52:00;4.00;;;2.10;;
14778;SDS011;7481;53.750;10.570;2022-07-11T01:54:28;7.60;;;2.07;;
14778;SDS011;7481;53.750;10.570;2022-07-11T01:56:56;3.23;;;2.00;;
14778;SDS011;7481;53.750;10.570;2022-07-11T01:59:23;4.00;;;2.07;;
14778;SDS011;7481;53.750;10.570;2022-07-11T02:01:51;5.03;;;2.00;;
14778;SDS011;7481;53.750;10.570;2022-07-11T02:04:19;5.60;;;1.93;;
14778;SDS011;7481;53.750;10.570;2022-07-11T02:06:47;2.80;;;1.90;;
14778;SDS011;7481;53.750;10.570;2022-07-11T02:09:14;7.93;;;2.00;;
14778;SDS011;7481;53.750;10.570;2022-07-11T02:11:43;5.47;;;2.00;;
14778;SDS011;7481;53.750;10.570;2022-07-11T02:14:11;4.57;;;1.90;;
14778;SDS011;7481;53.750;10.570;2022-07-11T02:16:40;7.37;;;2.20;;
14778;SDS011;7481;53.750;10.570;2022-07-11T02:19:07;3.80;;;2.00;;
14778;SDS011;7481;53.750;10.570;2022-07-11T02:21:37;5.23;;;2.17;;
14778;SDS011;7481;53.750;10.570;2022-07-11T02:24:07;4.43;;;1.93;;
14778;SDS011;7481;53.750;10.570;2022-07-11T02:26:35;6.43;;;2.30;;
14778;SDS011;7481;53.750;10.570;2022-07-11T02:29:02;5.07;;;2.07;;
14778;SDS011;7481;53.750;10.570;2022-07-11T02:31:30;2.17;;;1.80;;
14778;SDS011;7481;53.750;10.570;2022-07-11T02:33:57;7.87;;;2.10;;
14778;SDS011;7481;53.750;10.570;2022-07-11T02:36:25;5.53;;;2.13;;
14778;SDS011;7481;53.750;10.570;2022-07-11T02:38:52;3.83;;;2.17;;
14778;SDS011;7481;53.750;10.570;2022-07-11T02:41:20;4.07;;;2.23;;
14778;SDS011;7481;53.750;10.570;2022-07-11T02:43:47;7.47;;;2.63;;
14778;SDS011;7481;53.750;10.570;2022-07-11T02:46:14;3.90;;;1.93;;
14778;SDS011;7481;53.750;10.570;2022-07-11T02:48:42;5.00;;;2.00;;
14778;SDS011;7481;53.750;10.570;2022-07-11T02:51:10;2.93;;;2.00;;
14778;SDS011;7481;53.750;10.570;2022-07-11T02:53:37;4.50;;;2.13;;
14778;SDS011;7481;53.750;10.570;2022-07-11T02:56:05;5.33;;;2.17;;
14778;SDS011;7481;53.750;10.570;2022-07-11T02:58:33;5.67;;;2.27;;
14778;SDS011;7481;53.750;10.570;2022-07-11T03:01:00;7.10;;;2.43;;
14778;SDS011;7481;53.750;10.570;2022-07-11T03:03:27;3.73;;;1.90;;
14778;SDS011;7481;53.750;10.570;2022-07-11T03:05:56;5.27;;;1.90;;
14778;SDS011;7481;53.750;10.570;2022-07-11T03:08:23;4.33;;;2.17;;
14778;SDS011;7481;53.750;10.570;2022-07-11T03:10:51;2.70;;;1.97;;
14778;SDS011;7481;53.750;10.570;2022-07-11T03:13:18;4.77;;;1.90;;
14778;SDS011;7481;53.750;10.570;2022-07-11T03:15:46;5.63;;;1.90;;
14778;SDS011;7481;53.750;10.570;2022-07-11T03:18:13;5.93;;;2.27;;
14778;SDS011;7481;53.750;10.570;2022-07-11T03:20:40;5.50;;;2.57;;
14778;SDS011;7481;53.750;10.570;2022-07-11T03:23:08;4.27;;;2.07;;
14778;SDS011;7481;53.750;10.570;2022-07-11T03:25:35;6.90;;;2.03;;
14778;SDS011;7481;53.750;10.570;2022-07-11T03:28:03;4.87;;;2.00;;
14778;SDS011;7481;53.750;10.570;2022-07-11T03:30:30;4.00;;;2.43;;
14778;SDS011;7481;53.750;10.570;2022-07-11T03:32:58;4.03;;;2.30;;
14778;SDS011;7481;53.750;10.570;2022-07-11T03:35:25;5.57;;;1.97;;
14778;SDS011;7481;53.750;10.570;2022-07-11T03:38:09;5.33;;;2.53;;
14778;SDS011;7481;53.750;10.570;2022-07-11T03:40:36;4.40;;;2.10;;
14778;SDS011;7481;53.750;10.570;2022-07-11T03:43:04;3.97;;;2.43;;
14778;SDS011;7481;53.750;10.570;2022-07-11T03:45:31;4.73;;;2.17;;
14778;SDS011;7481;53.750;10.570;2022-07-11T03:47:59;6.07;;;2.00;;
14778;SDS011;7481;53.750;10.570;2022-07-11T03:50:26;4.30;;;2.10;;
14778;SDS011;7481;53.750;10.570;2022-07-11T03:52:53;5.17;;;2.23;;
14778;SDS011;7481;53.750;10.570;2022-07-11T03:55:21;3.33;;;2.00;;
14778;SDS011;7481;53.750;10.570;2022-07-11T03:57:48;6.30;;;1.90;;
14778;SDS011;7481;53.750;10.570;2022-07-11T04:00:16;7.93;;;2.10;;
14778;SDS011;7481;53.750;10.570;2022-07-11T04:02:43;5.23;;;2.00;;
14778;SDS011;7481;53.750;10.570;2022-07-11T04:05:11;4.03;;;2.77;;
14778;SDS011;7481;53.750;10.570;2022-07-11T04:07:39;4.37;;;1.93;;
14778;SDS011;7481;53.750;10.570;2022-07-11T04:10:06;7.97;;;2.27;;
14778;SDS011;7481;53.750;10.570;2022-07-11T04:12:34;5.40;;;1.87;;
14778;SDS011;7481;53.750;10.570;2022-07-11T04:15:02;4.77;;;2.10;;
14778;SDS011;7481;53.750;10.570;2022-07-11T04:17:29;5.00;;;2.30;;
14778;SDS011;7481;53.750;10.570;2022-07-11T04:19:56;6.40;;;2.13;;
14778;SDS011;7481;53.750;10.570;2022-07-11T04:22:24;5.07;;;2.00;;
14778;SDS011;7481;53.750;10.570;2022-07-11T04:24:51;6.27;;;2.30;;
14778;SDS011;7481;53.750;10.570;2022-07-11T04:27:19;6.70;;;2.37;;
14778;SDS011;7481;53.750;10.570;2022-07-11T04:29:48;5.73;;;1.90;;
14778;SDS011;7481;53.750;10.570;2022-07-11T04:32:15;3.47;;;2.17;;
14778;SDS011;7481;53.750;10.570;2022-07-11T04:34:43;4.57;;;2.13;;
14778;SDS011;7481;53.750;10.570;2022-07-11T04:37:10;5.73;;;2.30;;
14778;SDS011;7481;53.750;10.570;2022-07-11T04:39:38;5.53;;;2.03;;
14778;SDS011;7481;53.750;10.570;2022-07-11T04:42:05;6.43;;;2.27;;
14778;SDS011;7481;53.750;10.570;2022-07-11T04:44:36;3.73;;;2.10;;
14778;SDS011;7481;53.750;10.570;2022-07-11T04:47:03;4.43;;;2.07;;
14778;SDS011;7481;53.750;10.570;2022-07-11T04:49:31;4.93;;;2.10;;
14778;SDS011;7481;53.750;10.570;2022-07-11T04:51:59;4.23;;;2.37;;
14778;SDS011;7481;53.750;10.570;2022-07-11T04:54:28;8.20;;;2.47;;
14778;SDS011;7481;53.750;10.570;2022-07-11T04:56:56;6.07;;;2.50;;
14778;SDS011;7481;53.750;10.570;2022-07-11T04:59:23;5.63;;;2.17;;
14778;SDS011;7481;53.750;10.570;2022-07-11T05:01:51;6.87;;;2.43;;
14778;SDS011;7481;53.750;10.570;2022-07-11T05:04:18;4.10;;;2.40;;
14778;SDS011;7481;53.750;10.570;2022-07-11T05:06:46;6.97;;;2.47;;
14778;SDS011;7481;53.750;10.570;2022-07-11T05:09:13;7.43;;;2.40;;
14778;SDS011;7481;53.750;10.570;2022-07-11T05:11:40;5.40;;;2.70;;
14778;SDS011;7481;53.750;10.570;2022-07-11T05:14:08;9.90;;;2.67;;
14778;SDS011;7481;53.750;10.570;2022-07-11T05:16:35;6.63;;;2.40;;
14778;SDS011;7481;53.750;10.570;2022-07-11T05:19:04;3.77;;;1.83;;
14778;SDS011;7481;53.750;10.570;2022-07-11T05:21:31;5.97;;;2.50;;
14778;SDS011;7481;53.750;10.570;2022-07-11T05:23:58;4.70;;;2.40;;
14778;SDS011;7481;53.750;10.570;2022-07-11T05:26:26;7.80;;;2.10;;
14778;SDS011;7481;53.750;10.570;2022-07-11T05:28:53;8.52;;;2.70;;
14778;SDS011;7481;53.750;10.570;2022-07-11T05:31:21;4.93;;;2.53;;
14778;SDS011;7481;53.750;10.570;2022-07-11T05:33:49;5.18;;;1.90;;
14778;SDS011;7481;53.750;10.570;2022-07-11T05:36:16;4.30;;;1.90;;
14778;SDS011;7481;53.750;10.570;2022-07-11T05:38:43;6.82;;;2.50;;
14778;SDS011;7481;53.750;10.570;2022-07-11T05:41:11;7.63;;;2.40;;
14778;SDS011;7481;53.750;10.570;2022-07-11T05:43:38;6.30;;;2.40;;
14778;SDS011;7481;53.750;10.570;2022-07-11T05:46:06;5.57;;;2.13;;
14778;SDS011;7481;53.750;10.570;2022-07-11T05:48:33;9.10;;;2.55;;
14778;SDS011;7481;53.750;10.570;2022-07-11T05:51:01;5.72;;;2.42;;
14778;SDS011;7481;53.750;10.570;2022-07-11T05:53:28;4.53;;;1.95;;
14778;SDS011;7481;53.750;10.570;2022-07-11T05:55:55;6.50;;;2.35;;
14778;SDS011;7481;53.750;10.570;2022-07-11T05:58:23;4.68;;;2.35;;
14778;SDS011;7481;53.750;10.570;2022-07-11T06:00:51;5.28;;;2.00;;
14778;SDS011;7481;53.750;10.570;2022-07-11T06:03:18;5.43;;;2.30;;
14778;SDS011;7481;53.750;10.570;2022-07-11T06:05:46;6.82;;;2.35;;
14778;SDS011;7481;53.750;10.570;2022-07-11T06:08:15;7.95;;;2.30;;
14778;SDS011;7481;53.750;10.570;2022-07-11T06:11:01;8.02;;;2.33;;
14778;SDS011;7481;53.750;10.570;2022-07-11T06:13:29;4.57;;;2.00;;
14778;SDS011;7481;53.750;10.570;2022-07-11T06:15:56;5.03;;;1.90;;
14778;SDS011;7481;53.750;10.570;2022-07-11T06:18:24;4.30;;;1.83;;
14778;SDS011;7481;53.750;10.570;2022-07-11T06:20:51;3.70;;;1.92;;
14778;SDS011;7481;53.750;10.570;2022-07-11T06:23:19;6.72;;;1.83;;
14778;SDS011;7481;53.750;10.570;2022-07-11T06:25:46;4.95;;;2.45;;
14778;SDS011;7481;53.750;10.570;2022-07-11T06:28:14;5.68;;;2.20;;
14778;SDS011;7481;53.750;10.570;2022-07-11T06:30:42;4.47;;;1.88;;
14778;SDS011;7481;53.750;10.570;2022-07-11T06:33:09;6.43;;;2.15;;
14778;SDS011;7481;53.750;10.570;2022-07-11T06:35:37;7.00;;;2.20;;
14778;SDS011;7481;53.750;10.570;2022-07-11T06:38:04;4.18;;;1.77;;
14778;SDS011;7481;53.750;10.570;2022-07-11T06:40:32;6.30;;;2.33;;
14778;SDS011;7481;53.750;10.570;2022-07-11T06:42:59;3.55;;;1.98;;
14778;SDS011;7481;53.750;10.570;2022-07-11T06:45:26;6.57;;;2.05;;
14778;SDS011;7481;53.750;10.570;2022-07-11T06:47:54;7.20;;;2.00;;
14778;SDS011;7481;53.750;10.570;2022-07-11T06:50:21;4.78;;;1.90;;
14778;SDS011;7481;53.750;10.570;2022-07-11T06:52:49;4.75;;;2.03;;
14778;SDS011;7481;53.750;10.570;2022-07-11T06:55:16;5.25;;;2.00;;
14778;SDS011;7481;53.750;10.570;2022-07-11T06:57:44;7.32;;;2.63;;
14778;SDS011;7481;53.750;10.570;2022-07-11T07:00:31;5.65;;;1.98;;
14778;SDS011;7481;53.750;10.570;2022-07-11T07:02:59;4.68;;;1.92;;
14778;SDS011;7481;53.750;10.570;2022-07-11T07:05:32;4.18;;;1.80;;
14778;SDS011;7481;53.750;10.570;2022-07-11T07:07:59;2.78;;;1.33;;
14778;SDS011;7481;53.750;10.570;2022-07-11T07:10:27;3.83;;;1.90;;
14778;SDS011;7481;53.750;10.570;2022-07-11T07:12:54;4.47;;;1.52;;
14778;SDS011;7481;53.750;10.570;2022-07-11T07:15:22;4.35;;;1.58;;
14778;SDS011;7481;53.750;10.570;2022-07-11T07:17:50;3.30;;;1.60;;
14778;SDS011;7481;53.750;10.570;2022-07-11T07:20:17;3.90;;;1.52;;
14778;SDS011;7481;53.750;10.570;2022-07-11T07:22:44;2.97;;;1.58;;
14778;SDS011;7481;53.750;10.570;2022-07-11T07:25:12;3.15;;;1.58;;
14778;SDS011;7481;53.750;10.570;2022-07-11T07:27:39;3.65;;;1.70;;
14778;SDS011;7481;53.750;10.570;2022-07-11T07:30:07;4.22;;;1.40;;
14778;SDS011;7481;53.750;10.570;2022-07-11T07:32:34;3.78;;;1.42;;
14778;SDS011;7481;53.750;10.570;2022-07-11T07:35:01;2.55;;;1.52;;
14778;SDS011;7481;53.750;10.570;2022-07-11T07:37:29;3.30;;;1.40;;
14778;SDS011;7481;53.750;10.570;2022-07-11T07:39:56;4.80;;;1.70;;
14778;SDS011;7481;53.750;10.570;2022-07-11T07:42:24;3.53;;;1.75;;
14778;SDS011;7481;53.750;10.570;2022-07-11T07:44:51;4.90;;;1.42;;
14778;SDS011;7481;53.750;10.570;2022-07-11T11:36:16;1.30;;;1.20;;
14778;SDS011;7481;53.750;10.570;2022-07-11T11:38:54;3.20;;;1.42;;
14778;SDS011;7481;53.750;10.570;2022-07-11T11:41:30;3.22;;;1.38;;
14778;SDS011;7481;53.750;10.570;2022-07-11T11:44:02;1.52;;;1.10;;
14778;SDS011;7481;53.750;10.570;2022-07-11T11:46:30;2.10;;;1.30;;
14778;SDS011;7481;53.750;10.570;2022-07-11T11:49:13;1.58;;;1.13;;
14778;SDS011;7481;53.750;10.570;2022-07-11T11:51:41;2.45;;;1.40;;
14778;SDS011;7481;53.750;10.570;2022-07-11T11:54:10;1.33;;;1.20;;
14778;SDS011;7481;53.750;10.570;2022-07-11T11:56:37;2.95;;;1.60;;
14778;SDS011;7481;53.750;10.570;2022-07-11T11:59:07;1.58;;;1.15;;
14778;SDS011;7481;53.750;10.570;2022-07-11T12:01:44;1.15;;;1.10;;
14778;SDS011;7481;53.750;10.570;2022-07-11T12:04:15;1.55;;;1.15;;
14778;SDS011;7481;53.750;10.570;2022-07-11T12:06:45;2.03;;;1.40;;
14778;SDS011;7481;53.750;10.570;2022-07-11T12:11:41;6.70;;;1.50;;
14778;SDS011;7481;53.750;10.570;2022-07-11T12:14:13;1.98;;;1.25;;
14778;SDS011;7481;53.750;10.570;2022-07-11T12:16:41;3.85;;;1.88;;
14778;SDS011;7481;53.750;10.570;2022-07-11T12:19:19;1.88;;;1.33;;
14778;SDS011;7481;53.750;10.570;2022-07-11T12:21:48;1.52;;;1.20;;
14778;SDS011;7481;53.750;10.570;2022-07-11T12:24:23;1.85;;;1.40;;
14778;SDS011;7481;53.750;10.570;2022-07-11T12:26:50;2.88;;;1.30;;
14778;SDS011;7481;53.750;10.570;2022-07-11T12:29:18;1.77;;;1.00;;
14778;SDS011;7481;53.750;10.570;2022-07-11T12:31:47;1.42;;;1.20;;
14778;SDS011;7481;53.750;10.570;2022-07-11T12:34:16;1.65;;;1.27;;
14778;SDS011;7481;53.750;10.570;2022-07-11T12:36:44;1.85;;;1.05;;
14778;SDS011;7481;53.750;10.570;2022-07-11T12:39:25;2.83;;;1.23;;
14778;SDS011;7481;53.750;10.570;2022-07-11T12:41:54;1.40;;;1.10;;
14778;SDS011;7481;53.750;10.570;2022-07-11T12:44:26;3.38;;;1.30;;
14778;SDS011;7481;53.750;10.570;2022-07-11T12:47:13;3.58;;;1.20;;
14778;SDS011;7481;53.750;10.570;2022-07-11T12:49:40;1.60;;;1.23;;
14778;SDS011;7481;53.750;10.570;2022-07-11T12:52:11;2.55;;;1.60;;
14778;SDS011;7481;53.750;10.570;2022-07-11T12:54:39;1.30;;;0.98;;
14778;SDS011;7481;53.750;10.570;2022-07-11T12:57:07;2.75;;;1.25;;
14778;SDS011;7481;53.750;10.570;2022-07-11T12:59:34;2.47;;;1.40;;
14778;SDS011;7481;53.750;10.570;2022-07-11T13:02:03;2.65;;;1.20;;
14778;SDS011;7481;53.750;10.570;2022-07-11T13:04:38;1.25;;;1.05;;
14778;SDS011;7481;53.750;10.570;2022-07-11T13:07:25;1.52;;;1.25;;
14778;SDS011;7481;53.750;10.570;2022-07-11T13:10:17;1.75;;;1.42;;
14778;SDS011;7481;53.750;10.570;2022-07-11T13:12:47;1.58;;;1.20;;
14778;SDS011;7481;53.750;10.570;2022-07-11T13:15:16;2.70;;;1.15;;
14778;SDS011;7481;53.750;10.570;2022-07-11T13:17:48;1.55;;;1.20;;
14778;SDS011;7481;53.750;10.570;2022-07-11T13:20:18;0.98;;;0.90;;
14778;SDS011;7481;53.750;10.570;2022-07-11T13:22:47;2.08;;;1.20;;
14778;SDS011;7481;53.750;10.570;2022-07-11T13:25:15;2.08;;;1.27;;
14778;SDS011;7481;53.750;10.570;2022-07-11T13:27:43;2.10;;;1.38;;
14778;SDS011;7481;53.750;10.570;2022-07-11T13:30:11;1.42;;;1.20;;
14778;SDS011;7481;53.750;10.570;2022-07-11T13:32:43;1.33;;;1.23;;
14778;SDS011;7481;53.750;10.570;2022-07-11T13:35:11;1.20;;;1.10;;
14778;SDS011;7481;53.750;10.570;2022-07-11T13:37:43;1.33;;;1.23;;
14778;SDS011;7481;53.750;10.570;2022-07-11T13:40:16;1.23;;;1.13;;
14778;SDS011;7481;53.750;10.570;2022-07-11T13:42:47;2.55;;;1.30;;
14778;SDS011;7481;53.750;10.570;2022-07-11T13:45:17;2.65;;;1.48;;
14778;SDS011;7481;53.750;10.570;2022-07-11T13:47:46;1.42;;;1.33;;
14778;SDS011;7481;53.750;10.570;2022-07-11T13:50:16;1.73;;;1.40;;
14778;SDS011;7481;53.750;10.570;2022-07-11T13:52:45;3.13;;;1.50;;
14778;SDS011;7481;53.750;10.570;2022-07-11T13:55:17;1.67;;;1.30;;
14778;SDS011;7481;53.750;10.570;2022-07-11T13:57:46;2.78;;;1.38;;
14778;SDS011;7481;53.750;10.570;2022-07-11T14:00:17;1.48;;;1.17;;
14778;SDS011;7481;53.750;10.570;2022-07-11T14:02:44;1.30;;;0.98;;
14778;SDS011;7481;53.750;10.570;2022-07-11T14:05:14;1.20;;;1.10;;
14778;SDS011;7481;53.750;10.570;2022-07-11T14:07:41;1.90;;;1.20;;
14778;SDS011;7481;53.750;10.570;2022-07-11T14:10:09;2.45;;;1.50;;
14778;SDS011;7481;53.750;10.570;2022-07-11T14:12:38;1.23;;;1.13;;
14778;SDS011;7481;53.750;10.570;2022-07-11T14:15:06;4.95;;;1.88;;
14778;SDS011;7481;53.750;10.570;2022-07-11T14:17:36;2.70;;;1.33;;
14778;SDS011;7481;53.750;10.570;2022-07-11T14:20:04;1.35;;;1.20;;
14778;SDS011;7481;53.750;10.570;2022-07-11T14:22:32;1.42;;;1.10;;
14778;SDS011;7481;53.750;10.570;2022-07-11T14:25:03;2.35;;;1.20;;
14778;SDS011;7481;53.750;10.570;2022-07-11T14:27:31;1.90;;;1.10;;
14778;SDS011;7481;53.750;10.570;2022-07-11T14:29:59;1.30;;;1.20;;
14778;SDS011;7481;53.750;10.570;2022-07-11T14:32:27;1.50;;;1.23;;
14778;SDS011;7481;53.750;10.570;2022-07-11T14:34:54;3.38;;;1.38;;
14778;SDS011;7481;53.750;10.570;2022-07-11T14:37:22;1.40;;;1.10;;
14778;SDS011;7481;53.750;10.570;2022-07-11T14:39:52;1.85;;;1.20;;
14778;SDS011;7481;53.750;10.570;2022-07-11T14:42:20;1.75;;;1.02;;
14778;SDS011;7481;53.750;10.570;2022-07-11T14:45:06;1.15;;;1.00;;
14778;SDS011;7481;53.750;10.570;2022-07-11T14:47:41;2.33;;;1.30;;
14778;SDS011;7481;53.750;10.570;2022-07-11T14:50:09;1.65;;;1.40;;
14778;SDS011;7481;53.750;10.570;2022-07-11T14:52:38;2.05;;;1.30;;
14778;SDS011;7481;53.750;10.570;2022-07-11T14:55:06;8.43;;;1.70;;
14778;SDS011;7481;53.750;10.570;2022-07-11T14:57:34;1.75;;;1.08;;
14778;SDS011;7481;53.750;10.570;2022-07-11T15:00:02;3.90;;;1.13;;
14778;SDS011;7481;53.750;10.570;2022-07-11T15:02:33;1.40;;;1.10;;
14778;SDS011;7481;53.750;10.570;2022-07-11T15:05:23;3.35;;;1.30;;
14778;SDS011;7481;53.750;10.570;2022-07-11T15:07:50;2.58;;;1.10;;
14778;SDS011;7481;53.750;10.570;2022-07-11T15:10:36;1.15;;;1.00;;
14778;SDS011;7481;53.750;10.570;2022-07-11T15:13:24;4.95;;;1.20;;
14778;SDS011;7481;53.750;10.570;2022-07-11T15:15:51;2.85;;;1.27;;
14778;SDS011;7481;53.750;10.570;2022-07-11T15:18:19;1.83;;;1.20;;
14778;SDS011;7481;53.750;10.570;2022-07-11T15:20:47;3.92;;;1.40;;
14778;SDS011;7481;53.750;10.570;2022-07-11T15:23:15;1.40;;;1.20;;
14778;SDS011;7481;53.750;10.570;2022-07-11T15:25:42;1.85;;;1.17;;
14778;SDS011;7481;53.750;10.570;2022-07-11T15:28:09;2.55;;;1.23;;
14778;SDS011;7481;53.750;10.570;2022-07-11T15:30:45;2.55;;;1.30;;
14778;SDS011;7481;53.750;10.570;2022-07-11T15:33:13;2.47;;;1.27;;
14778;SDS011;7481;53.750;10.570;2022-07-11T15:35:40;4.13;;;1.58;;
14778;SDS011;7481;53.750;10.570;2022-07-11T15:38:08;3.45;;;1.40;;
14778;SDS011;7481;53.750;10.570;2022-07-11T15:40:35;1.88;;;1.25;;
14778;SDS011;7481;53.750;10.570;2022-07-11T15:43:03;2.70;;;1.40;;
14778;SDS011;7481;53.750;10.570;2022-07-11T15:45:30;2.22;;;1.40;;
14778;SDS011;7481;53.750;10.570;2022-07-11T15:48:00;1.55;;;1.45;;
14778;SDS011;7481;53.750;10.570;2022-07-11T15:50:27;3.08;;;1.20;;
14778;SDS011;7481;53.750;10.570;2022-07-11T15:52:54;4.32;;;1.90;;
14778;SDS011;7481;53.750;10.570;2022-07-11T15:55:22;2.47;;;1.30;;
14778;SDS011;7481;53.750;10.570;2022-07-11T15:57:49;1.30;;;1.10;;
14778;SDS011;7481;53.750;10.570;2022-07-11T16:00:17;1.30;;;1.20;;
14778;SDS011;7481;53.750;10.570;2022-07-11T16:02:47;7.22;;;1.77;;
14778;SDS011;7481;53.750;10.570;2022-07-11T16:05:15;3.65;;;1.40;;
14778;SDS011;7481;53.750;10.570;2022-07-11T16:07:42;1.77;;;1.30;;
14778;SDS011;7481;53.750;10.570;2022-07-11T16:10:10;1.95;;;1.30;;
14778;SDS011;7481;53.750;10.570;2022-07-11T16:12:37;1.70;;;1.15;;
14778;SDS011;7481;53.750;10.570;2022-07-11T16:15:04;1.27;;;1.17;;
14778;SDS011;7481;53.750;10.570;2022-07-11T16:17:32;2.42;;;1.23;;
14778;SDS011;7481;53.750;10.570;2022-07-11T16:20:05;1.67;;;1.23;;
14778;SDS011;7481;53.750;10.570;2022-07-11T16:22:32;2.28;;;1.20;;
14778;SDS011;7481;53.750;10.570;2022-07-11T16:25:00;2.55;;;1.20;;
14778;SDS011;7481;53.750;10.570;2022-07-11T16:27:29;1.80;;;1.13;;
14778;SDS011;7481;53.750;10.570;2022-07-11T16:29:57;4.72;;;1.10;;
14778;SDS011;7481;53.750;10.570;2022-07-11T16:32:24;2.67;;;1.25;;
14778;SDS011;7481;53.750;10.570;2022-07-11T16:34:51;1.38;;;1.20;;
14778;SDS011;7481;53.750;10.570;2022-07-11T16:37:19;2.00;;;1.20;;
14778;SDS011;7481;53.750;10.570;2022-07-11T16:39:46;2.88;;;1.50;;
14778;SDS011;7481;53.750;10.570;2022-07-11T16:42:36;1.70;;;1.27;;
14778;SDS011;7481;53.750;10.570;2022-07-11T16:45:22;4.25;;;1.50;;
14778;SDS011;7481;53.750;10.570;2022-07-11T16:47:57;2.38;;;1.40;;
14778;SDS011;7481;53.750;10.570;2022-07-11T16:50:24;1.15;;;1.08;;
14778;SDS011;7481;53.750;10.570;2022-07-11T16:53:05;1.70;;;1.13;;
14778;SDS011;7481;53.750;10.570;2022-07-11T16:55:33;1.40;;;1.20;;
14778;SDS011;7481;53.750;10.570;2022-07-11T16:58:00;1.33;;;1.10;;
14778;SDS011;7481;53.750;10.570;2022-07-11T17:00:28;1.75;;;1.30;;
14778;SDS011;7481;53.750;10.570;2022-07-11T17:02:55;1.52;;;1.35;;
14778;SDS011;7481;53.750;10.570;2022-07-11T17:05:22;1.95;;;1.17;;
14778;SDS011;7481;53.750;10.570;2022-07-11T17:07:50;2.95;;;1.40;;
14778;SDS011;7481;53.750;10.570;2022-07-11T17:10:36;2.45;;;1.17;;
14778;SDS011;7481;53.750;10.570;2022-07-11T17:13:04;1.05;;;0.98;;
14778;SDS011;7481;53.750;10.570;2022-07-11T17:15:31;1.75;;;1.10;;
14778;SDS011;7481;53.750;10.570;2022-07-11T17:17:58;1.67;;;1.25;;
14778;SDS011;7481;53.750;10.570;2022-07-11T17:20:26;1.65;;;1.30;;
14778;SDS011;7481;53.750;10.570;2022-07-11T17:22:53;1.33;;;1.15;;
14778;SDS011;7481;53.750;10.570;2022-07-11T17:25:22;1.42;;;1.27;;
14778;SDS011;7481;53.750;10.570;2022-07-11T17:27:49;2.55;;;1.35;;
14778;SDS011;7481;53.750;10.570;2022-07-11T17:30:18;1.83;;;1.38;;
14778;SDS011;7481;53.750;10.570;2022-07-11T17:32:45;2.80;;;1.58;;
14778;SDS011;7481;53.750;10.570;2022-07-11T17:35:13;1.98;;;1.00;;
14778;SDS011;7481;53.750;10.570;2022-07-11T17:37:42;2.67;;;1.30;;
14778;SDS011;7481;53.750;10.570;2022-07-11T17:40:09;2.47;;;1.25;;
14778;SDS011;7481;53.750;10.570;2022-07-11T17:42:37;2.25;;;1.15;;
14778;SDS011;7481;53.750;10.570;2022-07-11T17:45:04;2.92;;;1.38;;
14778;SDS011;7481;53.750;10.570;2022-07-11T17:47:32;2.53;;;1.30;;
14778;SDS011;7481;53.750;10.570;2022-07-11T17:49:59;3.00;;;1.50;;
14778;SDS011;7481;53.750;10.570;2022-07-11T17:52:26;2.42;;;1.40;;
14778;SDS011;7481;53.750;10.570;2022-07-11T17:54:54;1.58;;;1.30;;
14778;SDS011;7481;53.750;10.570;2022-07-11T17:57:22;1.58;;;1.20;;
14778;SDS011;7481;53.750;10.570;2022-07-11T17:59:49;3.17;;;1.50;;
14778;SDS011;7481;53.750;10.570;2022-07-11T18:02:17;2.45;;;1.30;;
14778;SDS011;7481;53.750;10.570;2022-07-11T18:04:45;1.88;;;1.33;;
14778;SDS011;7481;53.750;10.570;2022-07-11T18:07:12;1.67;;;1.30;;
14778;SDS011;7481;53.750;10.570;2022-07-11T18:09:40;2.15;;;1.40;;
14778;SDS011;7481;53.750;10.570;2022-07-11T18:12:07;3.10;;;1.35;;
14778;SDS011;7481;53.750;10.570;2022-07-11T18:14:34;1.30;;;1.20;;
14778;SDS011;7481;53.750;10.570;2022-07-11T18:17:02;2.72;;;1.40;;
14778;SDS011;7481;53.750;10.570;2022-07-11T18:19:29;2.95;;;1.67;;
14778;SDS011;7481;53.750;10.570;2022-07-11T18:21:59;1.65;;;1.52;;
14778;SDS011;7481;53.750;10.570;2022-07-11T18:24:26;2.38;;;1.40;;
14778;SDS011;7481;53.750;10.570;2022-07-11T18:26:55;1.40;;;1.30;;
14778;SDS011;7481;53.750;10.570;2022-07-11T18:29:23;2.83;;;1.60;;
14778;SDS011;7481;53.750;10.570;2022-07-11T18:31:50;1.50;;;1.40;;
14778;SDS011;7481;53.750;10.570;2022-07-11T18:34:17;2.80;;;1.50;;
14778;SDS011;7481;53.750;10.570;2022-07-11T18:36:45;2.13;;;1.30;;
14778;SDS011;7481;53.750;10.570;2022-07-11T18:39:12;2.05;;;1.25;;
14778;SDS011;7481;53.750;10.570;2022-07-11T18:41:58;2.38;;;1.10;;
14778;SDS011;7481;53.750;10.570;2022-07-11T18:44:25;2.05;;;1.40;;
14778;SDS011;7481;53.750;10.570;2022-07-11T18:46:53;2.65;;;1.40;;
14778;SDS011;7481;53.750;10.570;2022-07-11T18:49:20;1.42;;;1.25;;